createdAt,value
2023-07-19T00:00:42.880Z,89.40
2023-07-19T00:01:42.895Z,89.20
2023-07-19T00:02:42.875Z,88.96
2023-07-19T00:03:42.826Z,88.75
2023-07-19T00:04:42.798Z,88.59
2023-07-19T00:05:42.796Z,88.49
2023-07-19T00:06:42.800Z,88.79
2023-07-19T00:07:42.805Z,89.00
2023-07-19T00:08:42.750Z,89.00
2023-07-19T00:09:42.742Z,89.00
2023-07-19T00:10:42.751Z,89.10
2023-07-19T00:11:42.737Z,89.00
2023-07-19T00:12:54.866Z,88.90
2023-07-19T00:13:42.699Z,88.90
2023-07-19T00:14:42.704Z,89.00
2023-07-19T00:15:42.670Z,89.10
2023-07-19T00:16:42.762Z,88.96
2023-07-19T00:17:42.677Z,89.06
2023-07-19T00:18:42.638Z,88.96
2023-07-19T00:19:42.633Z,88.65
2023-07-19T00:20:42.629Z,88.45
2023-07-19T00:21:42.626Z,88.25
2023-07-19T00:22:42.670Z,88.35
2023-07-19T00:23:42.589Z,88.45
2023-07-19T00:24:42.578Z,88.15
2023-07-19T00:25:42.575Z,87.84
2023-07-19T00:26:42.556Z,87.44
2023-07-19T00:27:42.538Z,87.44
2023-07-19T00:28:42.549Z,87.68
2023-07-19T00:29:42.515Z,87.48
2023-07-19T00:30:42.554Z,87.68
2023-07-19T00:31:42.516Z,87.58
2023-07-19T00:32:42.550Z,87.68
2023-07-19T00:33:42.530Z,87.68
2023-07-19T00:34:42.460Z,87.62
2023-07-19T00:35:42.456Z,87.52
2023-07-19T00:36:42.461Z,87.73
2023-07-19T00:37:42.437Z,88.02
2023-07-19T00:38:42.415Z,87.93
2023-07-19T00:39:42.423Z,88.13
2023-07-19T00:40:42.395Z,88.23
2023-07-19T00:41:42.419Z,88.33
2023-07-19T00:42:42.367Z,88.33
2023-07-19T00:43:42.360Z,88.48
2023-07-19T00:44:42.362Z,88.68
2023-07-19T00:45:42.358Z,88.98
2023-07-19T00:46:42.424Z,89.18
2023-07-19T00:47:42.332Z,89.48
2023-07-19T00:48:42.324Z,89.39
2023-07-19T00:49:42.293Z,89.59
2023-07-19T00:50:42.311Z,89.69
2023-07-19T00:51:42.289Z,89.73
2023-07-19T00:52:42.265Z,89.83
2023-07-19T00:53:42.246Z,89.63
2023-07-19T00:54:42.238Z,89.63
2023-07-19T00:55:42.247Z,89.43
2023-07-19T00:56:42.270Z,89.12
2023-07-19T00:57:42.207Z,89.32
2023-07-19T00:58:42.204Z,89.32
2023-07-19T00:59:42.180Z,89.73
2023-07-19T01:00:42.166Z,89.73
2023-07-19T01:01:42.215Z,89.53
2023-07-19T01:02:42.225Z,89.63
2023-07-19T01:03:42.139Z,89.73
2023-07-19T01:04:42.150Z,89.87
2023-07-19T01:05:42.113Z,90.08
2023-07-19T01:06:42.130Z,90.18
2023-07-19T01:07:42.090Z,90.38
2023-07-19T01:08:42.117Z,90.79
2023-07-19T01:09:42.072Z,91.13
2023-07-19T01:10:42.060Z,91.34
2023-07-19T01:11:42.054Z,91.64
2023-07-19T01:12:42.037Z,91.94
2023-07-19T01:13:42.041Z,92.29
2023-07-19T01:14:42.023Z,92.60
2023-07-19T01:15:42.000Z,92.45
2023-07-19T01:16:42.064Z,92.45
2023-07-19T01:17:42.004Z,92.35
2023-07-19T01:18:41.999Z,92.35
2023-07-19T01:19:41.969Z,92.45
2023-07-19T01:20:41.967Z,92.40
2023-07-19T01:21:41.934Z,92.49
2023-07-19T01:22:41.989Z,92.49
2023-07-19T01:23:41.929Z,92.40
2023-07-19T01:24:41.970Z,92.40
2023-07-19T01:25:41.893Z,92.49
2023-07-19T01:26:41.885Z,92.60
2023-07-19T01:27:41.876Z,92.60
2023-07-19T01:28:41.862Z,92.60
2023-07-19T01:29:41.847Z,92.40
2023-07-19T01:30:41.862Z,92.29
2023-07-19T01:31:41.901Z,92.40
2023-07-19T01:32:41.827Z,92.70
2023-07-19T01:33:41.856Z,92.60
2023-07-19T01:34:41.845Z,92.70
2023-07-19T01:35:41.797Z,92.70
2023-07-19T01:36:41.773Z,92.60
2023-07-19T01:37:41.750Z,92.60
2023-07-19T01:38:41.752Z,92.60
2023-07-19T01:39:41.733Z,92.49
2023-07-19T01:40:41.750Z,92.49
2023-07-19T01:41:41.713Z,92.49
2023-07-19T01:42:41.713Z,92.49
2023-07-19T01:43:41.691Z,92.25
2023-07-19T01:44:41.681Z,92.05
2023-07-19T01:45:41.728Z,92.05
2023-07-19T01:46:41.659Z,91.94
2023-07-19T01:47:41.691Z,91.94
2023-07-19T01:48:41.648Z,91.94
2023-07-19T01:49:41.624Z,92.05
2023-07-19T01:50:41.619Z,91.85
2023-07-19T01:51:41.626Z,92.05
2023-07-19T01:52:41.593Z,92.14
2023-07-19T01:53:41.578Z,92.40
2023-07-19T01:54:41.570Z,92.19
2023-07-19T01:55:41.559Z,92.19
2023-07-19T01:56:41.567Z,92.29
2023-07-19T01:57:41.533Z,92.49
2023-07-19T01:58:41.521Z,92.55
2023-07-19T01:59:41.512Z,92.55
2023-07-19T02:00:41.515Z,92.45
2023-07-19T02:01:41.608Z,92.25
2023-07-19T02:02:41.559Z,92.14
2023-07-19T02:03:41.469Z,92.14
2023-07-19T02:04:41.511Z,91.94
2023-07-19T02:05:41.447Z,91.94
2023-07-19T02:06:41.455Z,91.85
2023-07-19T02:07:41.448Z,91.85
2023-07-19T02:08:41.443Z,91.74
2023-07-19T02:09:41.415Z,91.74
2023-07-19T02:10:41.391Z,91.74
2023-07-19T02:11:41.411Z,91.78
2023-07-19T02:12:41.394Z,91.89
2023-07-19T02:13:41.355Z,91.99
2023-07-19T02:14:41.354Z,92.19
2023-07-19T02:15:41.362Z,92.09
2023-07-19T02:16:41.323Z,91.99
2023-07-19T02:17:41.337Z,91.99
2023-07-19T02:18:41.324Z,91.99
2023-07-19T02:19:41.293Z,92.09
2023-07-19T02:20:41.284Z,92.29
2023-07-19T02:21:41.268Z,92.29
2023-07-19T02:22:41.345Z,92.29
2023-07-19T02:23:41.247Z,92.49
2023-07-19T02:24:41.283Z,92.60
2023-07-19T02:25:41.229Z,92.74
2023-07-19T02:26:41.222Z,93.05
2023-07-19T02:27:41.213Z,93.35
2023-07-19T02:28:41.211Z,93.65
2023-07-19T02:29:41.180Z,94.10
2023-07-19T02:30:41.195Z,94.21
2023-07-19T02:31:41.177Z,94.51
2023-07-19T02:32:41.184Z,94.51
2023-07-19T02:33:41.134Z,94.61
2023-07-19T02:34:41.131Z,94.51
2023-07-19T02:35:41.139Z,94.31
2023-07-19T02:36:41.123Z,94.41
2023-07-19T02:37:41.089Z,94.51
2023-07-19T02:38:41.077Z,94.51
2023-07-19T02:39:41.068Z,94.37
2023-07-19T02:40:41.094Z,94.26
2023-07-19T02:41:41.898Z,94.17
2023-07-19T02:42:41.048Z,93.96
2023-07-19T02:43:41.023Z,93.76
2023-07-19T02:44:41.017Z,93.45
2023-07-19T02:45:41.014Z,93.10
2023-07-19T02:46:41.027Z,92.70
2023-07-19T02:47:41.038Z,92.49
2023-07-19T02:48:40.981Z,92.40
2023-07-19T02:49:40.959Z,92.40
2023-07-19T02:50:40.954Z,92.40
2023-07-19T02:51:40.935Z,92.54
2023-07-19T02:52:40.945Z,92.33
2023-07-19T02:53:40.918Z,92.54
2023-07-19T02:54:40.899Z,91.83
2023-07-19T02:55:40.892Z,92.13
2023-07-19T02:56:40.887Z,92.54
2023-07-19T02:57:40.897Z,92.44
2023-07-19T02:58:40.862Z,92.44
2023-07-19T02:59:40.842Z,92.24
2023-07-19T03:00:40.878Z,92.29
2023-07-19T03:01:40.823Z,92.40
2023-07-19T03:02:40.901Z,92.09
2023-07-19T03:03:40.885Z,91.68
2023-07-19T03:04:40.790Z,91.64
2023-07-19T03:05:40.780Z,91.24
2023-07-19T03:06:40.769Z,91.03
2023-07-19T03:07:40.776Z,90.62
2023-07-19T03:08:40.775Z,90.62
2023-07-19T03:09:40.726Z,90.32
2023-07-19T03:10:40.736Z,90.22
2023-07-19T03:11:40.728Z,90.32
2023-07-19T03:12:40.770Z,90.53
2023-07-19T03:13:40.715Z,90.93
2023-07-19T03:14:40.681Z,90.83
2023-07-19T03:15:40.669Z,90.93
2023-07-19T03:16:40.683Z,91.24
2023-07-19T03:20:08.972Z,91.34
2023-07-19T03:20:14.358Z,91.85
2023-07-19T03:21:14.344Z,91.85
2023-07-19T03:22:14.333Z,91.85
2023-07-19T03:23:14.393Z,91.85
2023-07-19T03:24:14.343Z,91.74
2023-07-19T03:25:14.307Z,91.94
2023-07-19T03:26:14.303Z,92.05
2023-07-19T03:27:14.281Z,91.85
2023-07-19T03:28:14.274Z,91.74
2023-07-19T03:29:14.275Z,92.05
2023-07-19T03:30:14.247Z,92.05
2023-07-19T03:31:14.312Z,92.14
2023-07-19T03:32:14.232Z,92.14
2023-07-19T03:33:14.213Z,92.55
2023-07-19T03:34:14.226Z,92.96
2023-07-19T03:35:14.197Z,93.16
2023-07-19T03:36:14.179Z,93.26
2023-07-19T03:37:14.171Z,93.26
2023-07-19T03:38:14.156Z,93.37
2023-07-19T03:39:14.169Z,93.26
2023-07-19T03:40:14.134Z,93.06
2023-07-19T03:41:14.145Z,92.71
2023-07-19T03:42:14.181Z,92.51
2023-07-19T03:43:14.107Z,92.41
2023-07-19T03:44:14.113Z,92.41
2023-07-19T03:45:14.178Z,92.21
2023-07-19T03:46:14.136Z,92.51
2023-07-19T03:47:14.065Z,92.71
2023-07-19T03:48:14.047Z,92.51
2023-07-19T03:49:14.095Z,92.41
2023-07-19T03:50:14.034Z,92.10
2023-07-19T03:51:14.045Z,92.10
2023-07-19T03:52:14.061Z,92.00
2023-07-19T03:53:13.996Z,91.90
2023-07-19T03:54:13.977Z,91.60
2023-07-19T03:55:14.021Z,91.70
2023-07-19T03:56:13.956Z,91.70
2023-07-19T03:57:13.977Z,92.00
2023-07-19T03:58:13.937Z,91.86
2023-07-19T03:59:13.935Z,91.75
2023-07-19T04:00:13.919Z,91.55
2023-07-19T04:01:13.934Z,91.55
2023-07-19T04:02:13.991Z,91.55
2023-07-19T04:03:13.879Z,91.46
2023-07-19T04:04:13.957Z,91.25
2023-07-19T04:05:13.869Z,90.95
2023-07-19T04:06:13.849Z,90.95
2023-07-19T04:07:13.865Z,90.95
2023-07-19T04:08:13.825Z,90.95
2023-07-19T04:09:13.822Z,91.15
2023-07-19T04:10:13.803Z,91.46
2023-07-19T04:11:13.860Z,91.55
2023-07-19T04:12:13.799Z,91.46
2023-07-19T04:13:13.771Z,91.35
2023-07-19T04:14:13.759Z,91.46
2023-07-19T04:15:13.765Z,91.46
2023-07-19T04:16:13.758Z,91.46
2023-07-19T04:17:13.751Z,91.25
2023-07-19T04:18:13.715Z,90.84
2023-07-19T04:19:13.741Z,90.95
2023-07-19T04:20:13.703Z,91.05
2023-07-19T04:21:13.685Z,91.35
2023-07-19T04:22:13.666Z,91.55
2023-07-19T04:23:13.677Z,91.55
2023-07-19T04:24:13.664Z,91.75
2023-07-19T04:25:13.633Z,91.86
2023-07-19T04:26:13.626Z,91.96
2023-07-19T04:27:13.623Z,91.55
2023-07-19T04:28:13.598Z,91.55
2023-07-19T04:29:13.622Z,91.71
2023-07-19T04:30:13.585Z,91.71
2023-07-19T04:31:13.567Z,91.31
2023-07-19T04:32:13.559Z,91.00
2023-07-19T04:33:13.615Z,91.00
2023-07-19T04:34:13.556Z,91.00
2023-07-19T04:35:13.571Z,91.00
2023-07-19T04:36:13.527Z,90.70
2023-07-19T04:37:13.514Z,90.60
2023-07-19T04:38:13.489Z,90.40
2023-07-19T04:39:13.475Z,90.30
2023-07-19T04:40:13.486Z,90.70
2023-07-19T04:41:13.463Z,90.80
2023-07-19T04:42:13.442Z,90.40
2023-07-19T04:43:13.433Z,90.36
2023-07-19T04:44:13.427Z,90.36
2023-07-19T04:45:13.431Z,90.16
2023-07-19T04:46:13.432Z,90.16
2023-07-19T04:47:13.389Z,90.25
2023-07-19T04:48:13.408Z,90.36
2023-07-19T04:49:13.369Z,90.66
2023-07-19T04:50:13.365Z,90.56
2023-07-19T04:51:13.368Z,90.76
2023-07-19T04:52:13.327Z,90.96
2023-07-19T04:53:13.322Z,90.76
2023-07-19T04:54:13.329Z,91.06
2023-07-19T04:55:13.294Z,91.16
2023-07-19T04:56:13.309Z,90.86
2023-07-19T04:57:13.280Z,90.96
2023-07-19T04:58:13.264Z,90.96
2023-07-19T04:59:13.306Z,90.52
2023-07-19T05:00:13.319Z,90.21
2023-07-19T05:01:13.279Z,89.81
2023-07-19T05:02:13.223Z,89.30
2023-07-19T05:03:13.213Z,89.10
2023-07-19T05:04:13.204Z,89.06
2023-07-19T05:05:13.325Z,88.75
2023-07-19T05:06:13.214Z,88.55
2023-07-19T05:07:13.171Z,88.45
2023-07-19T05:08:13.149Z,88.35
2023-07-19T05:09:13.137Z,88.45
2023-07-19T05:10:13.128Z,88.75
2023-07-19T05:11:13.142Z,88.75
2023-07-19T05:12:13.116Z,88.75
2023-07-19T05:13:13.103Z,89.06
2023-07-19T05:14:13.089Z,89.46
2023-07-19T05:15:13.080Z,89.36
2023-07-19T05:16:13.095Z,89.66
2023-07-19T05:17:13.072Z,89.87
2023-07-19T05:18:13.038Z,90.47
2023-07-19T05:19:13.050Z,90.27
2023-07-19T05:20:13.033Z,90.27
2023-07-19T05:21:13.007Z,90.33
2023-07-19T05:22:13.037Z,90.23
2023-07-19T05:23:13.160Z,89.83
2023-07-19T05:24:12.970Z,89.68
2023-07-19T05:25:12.966Z,89.88
2023-07-19T05:26:12.952Z,89.28
2023-07-19T05:27:12.940Z,89.23
2023-07-19T05:28:12.982Z,88.73
2023-07-19T05:29:12.959Z,88.28
2023-07-19T05:30:12.949Z,87.88
2023-07-19T05:31:12.953Z,86.87
2023-07-19T05:32:12.972Z,86.63
2023-07-19T05:33:12.967Z,86.63
2023-07-19T05:34:12.876Z,86.83
2023-07-19T05:35:12.967Z,86.58
2023-07-19T05:36:12.863Z,85.38
2023-07-19T05:37:12.897Z,84.47
2023-07-19T05:38:12.872Z,84.77
2023-07-19T05:39:12.841Z,84.88
2023-07-19T05:40:12.816Z,84.27
2023-07-19T05:41:12.789Z,84.37
2023-07-19T05:42:12.867Z,84.47
2023-07-19T05:43:12.787Z,84.13
2023-07-19T05:44:13.270Z,84.17
2023-07-19T05:45:12.814Z,83.66
2023-07-19T05:46:12.858Z,84.17
2023-07-19T05:47:12.748Z,84.37
2023-07-19T05:48:12.809Z,84.77
2023-07-19T05:49:12.847Z,84.74
2023-07-19T05:50:12.767Z,85.03
2023-07-19T05:51:12.713Z,84.53
2023-07-19T05:52:12.864Z,84.03
2023-07-19T05:53:12.765Z,84.43
2023-07-19T05:54:12.807Z,84.63
2023-07-19T05:55:12.661Z,84.63
2023-07-19T05:56:12.672Z,85.20
2023-07-19T05:57:12.705Z,85.90
2023-07-19T05:58:12.673Z,85.70
2023-07-19T05:59:12.628Z,86.10
2023-07-19T06:00:20.560Z,85.40
2023-07-19T06:01:12.606Z,85.60
2023-07-19T06:02:12.632Z,85.46
2023-07-19T06:03:12.705Z,85.76
2023-07-19T06:04:12.695Z,85.46
2023-07-19T06:05:12.529Z,85.86
2023-07-19T06:06:12.511Z,85.25
2023-07-19T06:07:12.497Z,83.04
2023-07-19T06:08:23.740Z,82.14
2023-07-19T06:09:12.579Z,82.50
2023-07-19T06:10:12.459Z,82.20
2023-07-19T06:11:12.470Z,83.00
2023-07-19T06:12:12.437Z,82.40
2023-07-19T06:13:12.429Z,81.49
2023-07-19T06:14:12.455Z,80.89
2023-07-19T06:15:15.021Z,80.49
2023-07-19T06:16:12.413Z,81.09
2023-07-19T06:17:12.405Z,80.79
2023-07-19T06:18:12.463Z,80.39
2023-07-19T06:19:12.398Z,80.29
2023-07-19T06:20:12.417Z,79.94
2023-07-19T06:21:12.344Z,80.35
2023-07-19T06:22:12.377Z,80.05
2023-07-19T06:23:12.431Z,80.15
2023-07-19T06:24:12.350Z,79.41
2023-07-19T06:25:12.322Z,79.41
2023-07-19T06:26:12.279Z,78.80
2023-07-19T06:27:12.294Z,79.37
2023-07-19T06:28:12.259Z,78.86
2023-07-19T06:29:12.251Z,78.93
2023-07-19T06:30:12.405Z,78.42
2023-07-19T06:31:12.292Z,78.63
2023-07-19T06:32:12.214Z,77.83
2023-07-19T06:33:12.278Z,76.98
2023-07-19T06:34:12.192Z,77.39
2023-07-19T06:35:12.197Z,77.89
2023-07-19T06:36:12.255Z,77.69
2023-07-19T06:37:12.166Z,78.29
2023-07-19T06:38:12.228Z,78.49
2023-07-19T06:39:12.718Z,77.89
2023-07-19T06:40:12.135Z,77.89
2023-07-19T06:41:12.133Z,77.19
2023-07-19T06:42:12.326Z,77.48
2023-07-19T06:43:12.091Z,77.39
2023-07-19T06:44:12.099Z,76.95
2023-07-19T06:45:12.084Z,76.95
2023-07-19T06:46:12.064Z,76.34
2023-07-19T06:47:12.107Z,76.45
2023-07-19T06:48:12.069Z,76.54
2023-07-19T06:49:12.024Z,76.04
2023-07-19T06:50:12.025Z,75.91
2023-07-19T06:51:12.023Z,76.21
2023-07-19T06:52:12.024Z,75.60
2023-07-19T06:53:12.004Z,75.91
2023-07-19T06:54:15.380Z,75.97
2023-07-19T06:55:11.961Z,75.27
2023-07-19T06:56:11.961Z,74.57
2023-07-19T06:57:12.640Z,75.27
2023-07-19T06:58:11.995Z,75.07
2023-07-19T06:59:11.915Z,74.87
2023-07-19T07:00:11.912Z,75.54
2023-07-19T07:01:11.963Z,74.84
2023-07-19T07:02:11.913Z,74.13
2023-07-19T07:03:11.992Z,74.33
2023-07-19T07:04:11.942Z,74.43
2023-07-19T07:05:11.844Z,74.73
2023-07-19T07:06:11.847Z,74.37
2023-07-19T07:07:11.838Z,74.37
2023-07-19T07:08:11.840Z,74.67
2023-07-19T07:09:11.834Z,74.43
2023-07-19T07:10:11.792Z,74.73
2023-07-19T07:11:11.777Z,74.54
2023-07-19T07:12:11.814Z,74.93
2023-07-19T07:13:11.838Z,73.73
2023-07-19T07:14:11.751Z,73.83
2023-07-19T07:15:11.762Z,73.63
2023-07-19T07:16:11.722Z,74.03
2023-07-19T07:17:11.738Z,74.80
2023-07-19T07:18:11.704Z,73.39
2023-07-19T07:19:11.712Z,73.39
2023-07-19T07:20:11.702Z,73.39
2023-07-19T07:21:11.669Z,73.06
2023-07-19T07:22:11.654Z,73.66
2023-07-19T07:23:12.440Z,72.33
2023-07-19T07:24:11.637Z,71.66
2023-07-19T07:25:11.639Z,72.46
2023-07-19T07:26:11.654Z,71.66
2023-07-19T07:27:11.717Z,71.26
2023-07-19T07:28:11.604Z,71.56
2023-07-19T07:29:11.578Z,71.26
2023-07-19T07:30:11.597Z,71.46
2023-07-19T07:31:11.581Z,71.69
2023-07-19T07:32:11.546Z,72.06
2023-07-19T07:33:11.562Z,72.06
2023-07-19T07:34:11.523Z,70.86
2023-07-19T07:35:11.549Z,70.26
2023-07-19T07:36:11.501Z,69.26
2023-07-19T07:37:11.517Z,69.53
2023-07-19T07:38:11.497Z,69.93
2023-07-19T07:39:11.469Z,68.73
2023-07-19T07:40:11.456Z,68.82
2023-07-19T07:41:11.460Z,68.89
2023-07-19T07:42:11.457Z,68.49
2023-07-19T07:43:11.444Z,67.99
2023-07-19T07:44:11.419Z,67.66
2023-07-19T07:45:11.414Z,67.06
2023-07-19T07:46:11.457Z,67.26
2023-07-19T07:47:11.404Z,67.36
2023-07-19T07:48:11.421Z,67.56
2023-07-19T07:49:11.399Z,67.36
2023-07-19T07:50:11.960Z,66.83
2023-07-19T07:51:11.348Z,66.43
2023-07-19T07:52:11.354Z,67.03
2023-07-19T07:53:13.378Z,67.40
2023-07-19T07:54:11.305Z,66.70
2023-07-19T07:55:11.307Z,67.60
2023-07-19T07:56:11.296Z,66.96
2023-07-19T07:57:11.313Z,67.40
2023-07-19T07:58:11.266Z,66.70
2023-07-19T07:59:11.259Z,66.47
2023-07-19T08:00:11.258Z,66.06
2023-07-19T08:01:11.270Z,66.86
2023-07-19T08:02:11.231Z,66.20
2023-07-19T08:03:11.300Z,66.70
2023-07-19T08:04:11.226Z,66.30
2023-07-19T08:05:11.192Z,67.00
2023-07-19T08:06:11.180Z,66.50
2023-07-19T08:07:11.193Z,66.80
2023-07-19T08:08:11.154Z,66.27
2023-07-19T08:09:11.140Z,66.77
2023-07-19T08:10:11.148Z,66.80
2023-07-19T08:11:11.118Z,67.49
2023-07-19T08:12:11.112Z,66.89
2023-07-19T08:13:11.120Z,67.40
2023-07-19T08:14:11.129Z,66.96
2023-07-19T08:15:11.083Z,65.87
2023-07-19T08:16:11.069Z,67.07
2023-07-19T08:17:11.158Z,66.09
2023-07-19T08:18:11.110Z,66.00
2023-07-19T08:19:11.055Z,65.90
2023-07-19T08:20:11.063Z,66.70
2023-07-19T08:21:16.167Z,66.50
2023-07-19T08:22:11.014Z,67.19
2023-07-19T08:23:11.085Z,67.26
2023-07-19T08:24:11.000Z,65.07
2023-07-19T08:25:25.034Z,65.17
2023-07-19T08:26:10.954Z,65.67
2023-07-19T08:27:10.942Z,64.97
2023-07-19T08:28:11.029Z,65.53
2023-07-19T08:29:10.925Z,64.44
2023-07-19T08:30:10.991Z,64.31
2023-07-19T08:31:10.925Z,62.61
2023-07-19T08:32:10.924Z,63.01
2023-07-19T08:33:10.875Z,62.51
2023-07-19T08:34:10.888Z,62.74
2023-07-19T08:35:10.989Z,63.34
2023-07-19T08:36:10.903Z,63.24
2023-07-19T08:37:10.863Z,62.84
2023-07-19T08:38:10.918Z,62.84
2023-07-19T08:39:10.865Z,63.24
2023-07-19T08:40:10.803Z,63.74
2023-07-19T08:41:10.792Z,63.94
2023-07-19T08:42:10.777Z,64.34
2023-07-19T08:43:10.763Z,64.24
2023-07-19T08:44:10.763Z,63.91
2023-07-19T08:45:10.761Z,63.58
2023-07-19T08:46:10.756Z,62.81
2023-07-19T08:47:10.718Z,63.34
2023-07-19T08:48:10.809Z,63.74
2023-07-19T08:49:10.698Z,64.44
2023-07-19T08:50:10.713Z,64.34
2023-07-19T08:51:10.696Z,64.54
2023-07-19T08:52:10.666Z,64.64
2023-07-19T08:53:10.655Z,65.53
2023-07-19T08:54:10.664Z,65.41
2023-07-19T08:55:10.669Z,64.14
2023-07-19T08:56:10.621Z,63.34
2023-07-19T08:57:10.605Z,64.34
2023-07-19T08:58:10.602Z,63.44
2023-07-19T08:59:10.585Z,63.07
2023-07-19T09:00:10.602Z,63.47
2023-07-19T09:01:10.593Z,63.14
2023-07-19T09:02:10.617Z,63.24
2023-07-19T09:03:10.608Z,63.44
2023-07-19T09:04:10.595Z,63.74
2023-07-19T09:05:10.527Z,63.54
2023-07-19T09:06:10.510Z,62.71
2023-07-19T09:07:10.516Z,63.51
2023-07-19T09:08:10.511Z,63.01
2023-07-19T09:09:10.475Z,63.91
2023-07-19T09:10:10.544Z,63.21
2023-07-19T09:11:10.448Z,61.49
2023-07-19T09:12:10.465Z,61.79
2023-07-19T09:13:10.444Z,61.71
2023-07-19T09:14:10.418Z,61.79
2023-07-19T09:15:10.405Z,61.69
2023-07-19T09:16:10.390Z,62.29
2023-07-19T09:17:10.410Z,61.49
2023-07-19T09:18:10.418Z,61.88
2023-07-19T09:19:10.371Z,61.79
2023-07-19T09:20:10.350Z,61.88
2023-07-19T09:21:10.371Z,61.85
2023-07-19T09:22:10.339Z,62.42
2023-07-19T09:23:10.393Z,61.25
2023-07-19T09:24:10.328Z,61.93
2023-07-19T09:25:10.395Z,61.63
2023-07-19T09:26:10.283Z,60.53
2023-07-19T09:27:10.303Z,60.83
2023-07-19T09:28:10.269Z,61.20
2023-07-19T09:29:10.282Z,60.60
2023-07-19T09:30:10.314Z,61.37
2023-07-19T09:31:23.969Z,59.48
2023-07-19T09:32:10.273Z,59.98
2023-07-19T09:33:10.238Z,61.74
2023-07-19T09:34:10.194Z,60.25
2023-07-19T09:35:10.249Z,60.05
2023-07-19T09:36:10.192Z,59.98
2023-07-19T09:37:10.192Z,60.00
2023-07-19T09:38:10.159Z,60.70
2023-07-19T09:39:10.145Z,60.40
2023-07-19T09:40:10.144Z,60.93
2023-07-19T09:41:10.127Z,60.53
2023-07-19T09:42:10.162Z,61.33
2023-07-19T09:43:10.101Z,61.10
2023-07-19T09:44:10.090Z,60.21
2023-07-19T09:45:10.080Z,59.78
2023-07-19T09:46:10.164Z,60.38
2023-07-19T09:47:22.496Z,60.55
2023-07-19T09:48:10.110Z,57.86
2023-07-19T09:49:10.035Z,58.18
2023-07-19T09:50:10.107Z,58.95
2023-07-19T09:51:10.011Z,59.55
2023-07-19T09:52:09.999Z,59.45
2023-07-19T09:53:10.018Z,58.86
2023-07-19T09:54:09.981Z,58.86
2023-07-19T09:55:09.974Z,58.53
2023-07-19T09:56:09.950Z,58.23
2023-07-19T09:57:09.952Z,58.03
2023-07-19T09:58:09.930Z,57.96
2023-07-19T09:59:09.939Z,57.64
2023-07-19T10:00:09.909Z,58.00
2023-07-19T10:01:09.925Z,58.92
2023-07-19T10:02:09.893Z,59.03
2023-07-19T10:03:10.017Z,58.92
2023-07-19T10:04:09.864Z,58.00
2023-07-19T10:05:09.899Z,57.73
2023-07-19T10:06:09.842Z,58.83
2023-07-19T10:07:09.828Z,58.83
2023-07-19T10:08:09.852Z,59.15
2023-07-19T10:09:09.814Z,58.75
2023-07-19T10:10:09.798Z,59.95
2023-07-19T10:11:09.793Z,58.40
2023-07-19T10:12:09.778Z,56.98
2023-07-19T10:13:09.794Z,57.68
2023-07-19T10:14:20.423Z,56.73
2023-07-19T10:15:09.768Z,56.23
2023-07-19T10:16:09.735Z,57.18
2023-07-19T10:17:09.763Z,57.35
2023-07-19T10:18:09.763Z,56.93
2023-07-19T10:19:09.703Z,54.92
2023-07-19T10:20:09.703Z,55.63
2023-07-19T10:21:09.695Z,54.24
2023-07-19T10:22:09.678Z,54.57
2023-07-19T10:23:09.869Z,54.47
2023-07-19T10:24:09.644Z,55.11
2023-07-19T10:25:09.653Z,56.60
2023-07-19T10:26:09.639Z,56.53
2023-07-19T10:27:09.659Z,56.53
2023-07-19T10:28:09.683Z,56.83
2023-07-19T10:29:09.612Z,56.18
2023-07-19T10:30:09.586Z,55.09
2023-07-19T10:32:09.565Z,56.13
2023-07-19T10:33:09.681Z,56.95
2023-07-19T10:34:09.611Z,56.91
2023-07-19T10:35:09.533Z,57.73
2023-07-19T10:36:09.517Z,58.16
2023-07-19T10:37:09.518Z,58.09
2023-07-19T10:38:09.505Z,58.69
2023-07-19T10:39:09.519Z,58.39
2023-07-19T10:40:09.495Z,58.69
2023-07-19T10:41:09.465Z,58.33
2023-07-19T10:42:09.465Z,56.06
2023-07-19T10:43:09.497Z,55.64
2023-07-19T10:44:09.540Z,55.19
2023-07-19T10:45:09.430Z,55.32
2023-07-19T10:46:09.457Z,55.21
2023-07-19T10:47:09.417Z,55.11
2023-07-19T10:48:09.391Z,54.44
2023-07-19T10:49:09.473Z,53.65
2023-07-19T10:50:09.381Z,54.64
2023-07-19T10:51:09.608Z,53.53
2023-07-19T10:52:09.356Z,51.70
2023-07-19T10:53:09.332Z,51.47
2023-07-19T10:54:09.367Z,51.97
2023-07-19T10:55:27.438Z,51.07
2023-07-19T10:56:09.304Z,53.03
2023-07-19T10:57:09.302Z,53.88
2023-07-19T10:58:09.279Z,53.83
2023-07-19T10:59:09.310Z,54.85
2023-07-19T11:00:09.254Z,55.47
2023-07-19T11:01:09.287Z,55.96
2023-07-19T11:02:09.268Z,56.26
2023-07-19T11:03:09.339Z,56.76
2023-07-19T11:04:09.239Z,56.78
2023-07-19T11:05:09.214Z,57.70
2023-07-19T11:06:09.244Z,57.81
2023-07-19T11:07:09.204Z,57.64
2023-07-19T11:08:09.207Z,58.36
2023-07-19T11:09:09.274Z,58.73
2023-07-19T11:10:09.161Z,58.73
2023-07-19T11:11:09.143Z,58.26
2023-07-19T11:12:09.148Z,58.88
2023-07-19T11:13:09.188Z,59.68
2023-07-19T11:14:09.151Z,59.28
2023-07-19T11:15:15.219Z,60.00
2023-07-19T11:16:09.098Z,59.91
2023-07-19T11:17:09.117Z,59.51
2023-07-19T11:18:09.118Z,60.30
2023-07-19T11:19:09.087Z,61.13
2023-07-19T11:20:09.041Z,60.90
2023-07-19T11:21:09.039Z,60.90
2023-07-19T11:22:09.022Z,60.00
2023-07-19T11:23:09.102Z,60.13
2023-07-19T11:24:09.035Z,60.53
2023-07-19T11:25:09.026Z,60.43
2023-07-19T11:26:08.993Z,59.70
2023-07-19T11:27:09.019Z,59.70
2023-07-19T11:28:08.960Z,58.71
2023-07-19T11:29:08.947Z,58.48
2023-07-19T11:30:08.979Z,58.39
2023-07-19T11:31:08.970Z,58.65
2023-07-19T11:32:11.274Z,58.73
2023-07-19T11:33:08.921Z,58.80
2023-07-19T11:34:08.925Z,57.75
2023-07-19T11:35:08.894Z,57.01
2023-07-19T11:36:08.936Z,57.64
2023-07-19T11:37:08.866Z,58.53
2023-07-19T11:38:08.853Z,59.05
2023-07-19T11:39:08.840Z,58.73
2023-07-19T11:40:08.830Z,58.83
2023-07-19T11:41:08.841Z,58.92
2023-07-19T11:42:08.804Z,59.03
2023-07-19T11:43:08.798Z,58.13
2023-07-19T11:44:08.789Z,59.03
2023-07-19T11:45:08.803Z,58.43
2023-07-19T11:46:08.777Z,58.83
2023-07-19T11:47:08.786Z,58.20
2023-07-19T11:48:08.772Z,57.70
2023-07-19T11:49:08.730Z,57.90
2023-07-19T11:50:08.743Z,57.48
2023-07-19T11:51:08.739Z,56.95
2023-07-19T11:52:08.700Z,56.83
2023-07-19T11:53:08.683Z,54.72
2023-07-19T11:54:08.680Z,55.19
2023-07-19T11:55:08.664Z,52.98
2023-07-19T11:56:11.610Z,51.52
2023-07-19T11:57:09.469Z,51.18
2023-07-19T11:58:08.633Z,52.61
2023-07-19T11:59:08.635Z,53.11
2023-07-19T12:00:08.629Z,51.84
2023-07-19T12:01:08.664Z,51.87
2023-07-19T12:02:08.587Z,52.88
2023-07-19T12:03:08.722Z,51.03
2023-07-19T12:04:08.600Z,51.67
2023-07-19T12:05:08.575Z,50.36
2023-07-19T12:06:08.587Z,50.16
2023-07-19T12:07:08.542Z,49.20
2023-07-19T12:08:08.524Z,48.78
2023-07-19T12:09:08.515Z,48.39
2023-07-19T12:10:08.505Z,49.01
2023-07-19T12:11:08.488Z,48.14
2023-07-19T12:12:08.505Z,48.34
2023-07-19T12:13:08.470Z,48.27
2023-07-19T12:14:08.477Z,49.08
2023-07-19T12:15:08.461Z,47.13
2023-07-19T12:16:08.436Z,45.31
2023-07-19T12:17:08.496Z,46.53
2023-07-19T12:18:08.504Z,44.11
2023-07-19T12:19:08.407Z,45.85
2023-07-19T12:20:08.393Z,46.26
2023-07-19T12:21:08.383Z,47.72
2023-07-19T12:23:08.388Z,48.43
2023-07-19T12:24:08.381Z,48.71
2023-07-19T12:25:08.352Z,48.10
2023-07-19T12:26:08.340Z,47.55
2023-07-19T12:27:08.402Z,49.55
2023-07-19T12:28:08.320Z,49.60
2023-07-19T12:29:08.334Z,49.91
2023-07-19T12:30:08.296Z,50.13
2023-07-19T12:31:08.347Z,49.91
2023-07-19T12:32:08.345Z,49.96
2023-07-19T12:33:08.286Z,49.99
2023-07-19T12:34:08.271Z,50.41
2023-07-19T12:35:08.237Z,50.93
2023-07-19T12:36:08.220Z,52.14
2023-07-19T12:37:08.218Z,51.92
2023-07-19T12:38:08.213Z,52.04
2023-07-19T12:39:08.217Z,53.13
2023-07-19T12:40:08.177Z,52.26
2023-07-19T12:41:08.179Z,53.48
2023-07-19T12:42:08.154Z,53.08
2023-07-19T12:43:08.152Z,51.40
2023-07-19T12:44:08.177Z,52.61
2023-07-19T12:45:08.132Z,52.69
2023-07-19T12:46:08.148Z,52.61
2023-07-19T12:47:08.163Z,53.11
2023-07-19T12:48:08.113Z,54.00
2023-07-19T12:49:08.082Z,53.26
2023-07-19T12:50:08.100Z,51.99
2023-07-19T12:51:08.088Z,50.66
2023-07-19T12:52:08.071Z,49.20
2023-07-19T12:53:08.046Z,48.56
2023-07-19T12:54:08.027Z,47.63
2023-07-19T12:55:08.050Z,48.12
2023-07-19T12:56:08.126Z,47.19